createdAt,value
2018-05-17T00:00:28.930Z,0.00
2018-05-17T00:01:28.939Z,0.00
2018-05-17T00:02:28.949Z,0.00
2018-05-17T00:03:28.959Z,0.00
2018-05-17T00:04:28.968Z,0.00
2018-05-17T00:05:28.980Z,0.00
2018-05-17T00:06:29.005Z,0.00
2018-05-17T00:07:29.008Z,0.00
2018-05-17T00:08:29.008Z,0.00
2018-05-17T00:09:29.017Z,0.00
2018-05-17T00:10:29.026Z,0.00
2018-05-17T00:11:29.035Z,0.00
2018-05-17T00:12:29.045Z,0.00
2018-05-17T00:13:29.056Z,0.00
2018-05-17T00:14:29.068Z,0.00
2018-05-17T00:15:29.082Z,0.00
2018-05-17T00:16:29.085Z,0.00
2018-05-17T00:17:29.174Z,0.00
2018-05-17T00:18:29.103Z,0.00
2018-05-17T00:19:29.111Z,0.00
2018-05-17T00:20:29.123Z,0.00
2018-05-17T00:21:29.130Z,0.00
2018-05-17T00:22:29.140Z,0.00
2018-05-17T00:23:29.154Z,0.00
2018-05-17T00:24:29.159Z,0.00
2018-05-17T00:25:29.169Z,0.00
2018-05-17T00:26:29.175Z,0.00
2018-05-17T00:27:29.188Z,0.00
2018-05-17T00:28:29.207Z,0.00
2018-05-17T00:29:29.208Z,0.00
2018-05-17T00:30:29.215Z,0.00
2018-05-17T00:31:29.229Z,0.00
2018-05-17T00:32:29.235Z,0.00
2018-05-17T00:33:29.252Z,0.00
2018-05-17T00:34:29.256Z,0.00
2018-05-17T00:35:29.267Z,0.00
2018-05-17T00:36:29.293Z,0.00
2018-05-17T00:37:29.291Z,0.00
2018-05-17T00:38:29.295Z,0.00
2018-05-17T00:39:29.307Z,0.00
2018-05-17T00:40:29.328Z,0.00
2018-05-17T00:41:29.383Z,0.00
2018-05-17T00:42:29.343Z,0.00
2018-05-17T00:43:29.341Z,0.00
2018-05-17T00:44:29.351Z,0.00
2018-05-17T00:45:29.362Z,0.00
2018-05-17T00:46:29.374Z,0.00
2018-05-17T00:47:29.384Z,0.00
2018-05-17T00:48:29.392Z,0.00
2018-05-17T00:49:29.401Z,0.00
2018-05-17T00:50:29.409Z,0.00
2018-05-17T00:51:29.420Z,0.00
2018-05-17T00:52:29.487Z,0.00
2018-05-17T00:53:29.443Z,0.00
2018-05-17T00:54:29.444Z,0.00
2018-05-17T00:55:29.459Z,0.00
2018-05-17T00:56:29.468Z,0.00
2018-05-17T00:57:29.477Z,0.00
2018-05-17T00:58:29.516Z,0.00
2018-05-17T00:59:29.502Z,0.00
2018-05-17T01:00:29.502Z,0.00
2018-05-17T01:01:29.514Z,0.00
2018-05-17T01:02:29.522Z,0.00
2018-05-17T01:03:29.535Z,0.00
2018-05-17T01:04:29.543Z,0.00
2018-05-17T01:05:29.551Z,0.00
2018-05-17T01:06:29.568Z,0.00
2018-05-17T01:07:29.574Z,0.00
2018-05-17T01:08:29.580Z,0.00
2018-05-17T01:09:29.613Z,0.00
2018-05-17T01:10:29.601Z,0.00
2018-05-17T01:11:29.610Z,0.00
2018-05-17T01:12:29.617Z,0.00
2018-05-17T01:13:29.629Z,0.00
2018-05-17T01:14:29.644Z,0.00
2018-05-17T01:15:29.649Z,0.00
2018-05-17T01:16:29.659Z,0.00
2018-05-17T01:17:29.666Z,0.00
2018-05-17T01:18:29.677Z,0.00
2018-05-17T01:19:29.686Z,0.00
2018-05-17T01:20:29.696Z,0.00
2018-05-17T01:21:29.710Z,0.00
2018-05-17T01:22:29.715Z,0.00
2018-05-17T01:23:29.726Z,0.00
2018-05-17T01:24:29.733Z,0.00
2018-05-17T01:25:29.817Z,0.00
2018-05-17T01:26:29.753Z,0.00
2018-05-17T01:27:29.760Z,0.00
2018-05-17T01:28:29.771Z,0.00
2018-05-17T01:29:29.780Z,0.00
2018-05-17T01:30:29.791Z,0.00
2018-05-17T01:31:29.797Z,0.00
2018-05-17T01:32:29.816Z,0.00
2018-05-17T01:33:29.822Z,0.00
2018-05-17T01:34:29.828Z,0.00
2018-05-17T01:35:29.840Z,0.00
2018-05-17T01:36:29.850Z,0.00
2018-05-17T01:37:29.857Z,0.00
2018-05-17T01:38:29.865Z,0.00
2018-05-17T01:39:29.875Z,0.00
2018-05-17T01:40:29.888Z,0.00
2018-05-17T01:41:29.893Z,0.00
2018-05-17T01:42:29.910Z,0.00
2018-05-17T01:43:29.919Z,0.00
2018-05-17T01:44:29.922Z,0.00
2018-05-17T01:45:29.942Z,0.00
2018-05-17T01:46:29.939Z,0.00
2018-05-17T01:47:29.950Z,0.00
2018-05-17T01:48:29.966Z,0.00
2018-05-17T01:49:29.972Z,0.00
2018-05-17T01:50:29.974Z,0.00
2018-05-17T01:51:29.987Z,0.00
2018-05-17T01:52:29.998Z,0.00
2018-05-17T01:53:30.009Z,0.00
2018-05-17T01:54:30.020Z,0.00
2018-05-17T01:55:30.024Z,0.00
2018-05-17T01:56:30.038Z,0.00
2018-05-17T01:57:30.047Z,0.00
2018-05-17T01:58:30.056Z,0.00
2018-05-17T01:59:30.068Z,0.00
2018-05-17T02:00:30.078Z,0.00
2018-05-17T02:01:30.086Z,0.00
2018-05-17T02:02:30.100Z,0.00
2018-05-17T02:03:30.104Z,0.00
2018-05-17T02:04:30.119Z,0.00
2018-05-17T02:05:30.123Z,0.00
2018-05-17T02:06:30.131Z,0.00
2018-05-17T02:07:30.304Z,0.00
2018-05-17T02:08:30.902Z,0.00
2018-05-17T02:09:30.869Z,0.00
2018-05-17T02:10:30.173Z,0.00
2018-05-17T02:11:30.181Z,0.00
2018-05-17T02:12:30.187Z,0.00
2018-05-17T02:13:30.199Z,0.00
2018-05-17T02:14:30.209Z,0.00
2018-05-17T02:15:30.216Z,0.00
2018-05-17T02:16:30.243Z,0.00
2018-05-17T02:17:30.252Z,0.00
2018-05-17T02:18:30.256Z,0.00
2018-05-17T02:19:30.263Z,0.00
2018-05-17T02:20:30.267Z,0.00
2018-05-17T02:21:30.277Z,0.00
2018-05-17T02:22:30.283Z,0.00
2018-05-17T02:23:30.295Z,0.00
2018-05-17T02:24:30.305Z,0.00
2018-05-17T02:25:30.309Z,0.00
2018-05-17T02:26:30.324Z,0.00
2018-05-17T02:27:30.333Z,0.00
2018-05-17T02:28:30.341Z,0.00
2018-05-17T02:29:30.358Z,0.00
2018-05-17T02:30:30.359Z,0.00
2018-05-17T02:31:30.373Z,0.00
2018-05-17T02:32:30.380Z,0.00
2018-05-17T02:33:30.392Z,0.00
2018-05-17T02:34:30.395Z,0.00
2018-05-17T02:35:30.412Z,0.00
2018-05-17T02:36:30.437Z,0.00
2018-05-17T02:37:30.429Z,0.00
2018-05-17T02:38:30.437Z,0.00
2018-05-17T02:39:30.448Z,0.00
2018-05-17T02:40:30.455Z,0.00
2018-05-17T02:41:30.468Z,0.00
2018-05-17T02:42:30.475Z,0.00
2018-05-17T02:43:30.483Z,0.00
2018-05-17T02:44:30.505Z,0.00
2018-05-17T02:45:30.505Z,0.00
2018-05-17T02:46:30.514Z,0.00
2018-05-17T02:47:30.520Z,0.00
2018-05-17T02:48:30.533Z,0.00
2018-05-17T02:49:30.545Z,0.00
2018-05-17T02:50:30.566Z,0.00
2018-05-17T02:51:30.572Z,0.00
2018-05-17T02:52:30.587Z,0.00
2018-05-17T02:53:30.580Z,0.00
2018-05-17T02:54:30.588Z,0.00
2018-05-17T02:55:30.602Z,0.00
2018-05-17T02:56:30.605Z,0.00
2018-05-17T02:57:30.613Z,0.00
2018-05-17T02:58:30.627Z,0.00
2018-05-17T02:59:30.640Z,0.00
2018-05-17T03:00:30.648Z,0.00
2018-05-17T03:01:30.657Z,0.00
2018-05-17T03:02:30.665Z,0.00
2018-05-17T03:03:30.675Z,0.00
2018-05-17T03:04:30.683Z,0.00
2018-05-17T03:05:30.696Z,0.00
2018-05-17T03:06:30.704Z,0.00
2018-05-17T03:07:30.711Z,0.00
2018-05-17T03:08:30.724Z,0.00
2018-05-17T03:09:30.740Z,0.00
2018-05-17T03:10:30.743Z,0.00
2018-05-17T03:11:30.749Z,0.00
2018-05-17T03:12:30.760Z,0.00
2018-05-17T03:13:30.773Z,0.00
2018-05-17T03:14:30.785Z,0.00
2018-05-17T03:15:30.834Z,0.00
2018-05-17T03:16:30.797Z,4.00
2018-05-17T03:17:30.808Z,4.00
2018-05-17T03:18:30.814Z,0.00
2018-05-17T03:19:30.823Z,0.00
2018-05-17T03:20:30.831Z,0.00
2018-05-17T03:21:30.904Z,4.00
2018-05-17T03:22:30.853Z,4.00
2018-05-17T03:23:30.881Z,8.00
2018-05-17T03:24:30.872Z,4.00
2018-05-17T03:25:30.886Z,8.00
2018-05-17T03:26:30.889Z,4.00
2018-05-17T03:27:30.901Z,8.00
2018-05-17T03:28:30.912Z,8.00
2018-05-17T03:29:30.919Z,8.00
2018-05-17T03:30:30.931Z,8.00
2018-05-17T03:31:30.935Z,4.00
2018-05-17T03:32:30.950Z,8.00
2018-05-17T03:33:30.960Z,8.00
2018-05-17T03:34:30.974Z,8.00
2018-05-17T03:35:30.982Z,8.00
2018-05-17T03:36:30.985Z,8.00
2018-05-17T03:37:30.995Z,8.00
2018-05-17T03:38:31.002Z,8.00
2018-05-17T03:39:31.013Z,8.00
2018-05-17T03:40:31.021Z,8.00
2018-05-17T03:41:31.031Z,8.00
2018-05-17T03:42:31.045Z,8.00
2018-05-17T03:43:31.050Z,8.00
2018-05-17T03:44:31.061Z,12.00
2018-05-17T03:45:31.067Z,16.00
2018-05-17T03:46:31.167Z,20.00
2018-05-17T03:47:31.088Z,24.00
2018-05-17T03:48:31.100Z,24.00
2018-05-17T03:49:31.108Z,24.00
2018-05-17T03:50:31.117Z,28.00
2018-05-17T03:51:31.125Z,28.00
2018-05-17T03:52:31.137Z,32.00
2018-05-17T03:53:31.148Z,36.00
2018-05-17T03:54:31.153Z,36.00
2018-05-17T03:55:31.160Z,40.00
2018-05-17T03:56:31.175Z,36.00
2018-05-17T03:57:31.193Z,40.00
2018-05-17T03:58:31.191Z,40.00
2018-05-17T03:59:31.200Z,44.00
2018-05-17T04:00:31.219Z,44.00
2018-05-17T04:01:31.216Z,48.00
2018-05-17T04:02:31.232Z,52.00
2018-05-17T04:03:31.241Z,60.00
2018-05-17T04:04:31.253Z,76.00
2018-05-17T04:05:31.259Z,92.00
2018-05-17T04:06:31.265Z,120.00
2018-05-17T04:07:31.279Z,148.00
2018-05-17T04:08:31.316Z,152.00
2018-05-17T04:09:31.294Z,160.00
2018-05-17T04:10:31.308Z,160.00
2018-05-17T04:11:31.314Z,176.00
2018-05-17T04:12:31.323Z,192.00
2018-05-17T04:13:31.331Z,196.00
2018-05-17T04:14:31.344Z,208.00
2018-05-17T04:15:31.372Z,240.00
2018-05-17T04:16:31.361Z,228.00
2018-05-17T04:17:31.891Z,224.00
2018-05-17T04:18:31.382Z,280.00
2018-05-17T04:19:31.389Z,324.00
2018-05-17T04:20:31.398Z,320.00
2018-05-17T04:21:31.406Z,336.00
2018-05-17T04:22:31.417Z,356.00
2018-05-17T04:23:31.429Z,300.00
2018-05-17T04:24:32.399Z,328.00
2018-05-17T04:25:31.445Z,352.00
2018-05-17T04:26:31.456Z,352.00
2018-05-17T04:27:31.466Z,336.00
2018-05-17T04:28:31.540Z,364.00
2018-05-17T04:29:31.482Z,368.00
2018-05-17T04:30:31.487Z,368.00
2018-05-17T04:31:31.585Z,356.00
2018-05-17T04:32:31.529Z,356.00
2018-05-17T04:33:31.522Z,404.00
2018-05-17T04:34:31.534Z,452.00
2018-05-17T04:35:31.540Z,468.00
2018-05-17T04:36:31.557Z,452.00
2018-05-17T04:37:31.560Z,524.00
2018-05-17T04:38:31.566Z,660.00
2018-05-17T04:39:31.578Z,760.00
2018-05-17T04:40:31.611Z,772.00
2018-05-17T04:41:31.598Z,764.00
2018-05-17T04:42:31.607Z,776.00
2018-05-17T04:43:31.613Z,768.00
2018-05-17T04:44:31.665Z,772.00
2018-05-17T04:45:31.639Z,756.00
2018-05-17T04:46:31.643Z,756.00
2018-05-17T04:47:31.653Z,776.00
2018-05-17T04:48:31.662Z,764.00
2018-05-17T04:49:31.671Z,844.00
2018-05-17T04:50:31.699Z,864.00
2018-05-17T04:51:31.774Z,864.00
2018-05-17T04:52:32.396Z,960.00
2018-05-17T04:53:31.715Z,1028.00
2018-05-17T04:54:31.716Z,1092.00
2018-05-17T04:55:31.724Z,1144.00
2018-05-17T04:56:31.738Z,1204.00
2018-05-17T04:57:31.754Z,1264.00
2018-05-17T04:58:31.755Z,1344.00
2018-05-17T04:59:31.761Z,1432.00
2018-05-17T05:00:31.773Z,1516.00
2018-05-17T05:01:31.782Z,1600.00
2018-05-17T05:02:31.793Z,1680.00
2018-05-17T05:03:31.799Z,1752.00
2018-05-17T05:04:31.807Z,1820.00
2018-05-17T05:05:31.818Z,1888.00
2018-05-17T05:06:31.828Z,1960.00
2018-05-17T05:07:31.838Z,2024.00
2018-05-17T05:08:31.854Z,2036.00
2018-05-17T05:09:31.923Z,2028.00
2018-05-17T05:10:31.864Z,2116.00
2018-05-17T05:11:31.886Z,2188.00
2018-05-17T05:12:31.885Z,2192.00
2018-05-17T05:13:46.398Z,2236.00
2018-05-17T05:14:31.904Z,2272.00
2018-05-17T05:15:31.914Z,2420.00
2018-05-17T05:16:31.922Z,2716.00
2018-05-17T05:17:31.933Z,2676.00
2018-05-17T05:18:31.942Z,2700.00
2018-05-17T05:19:31.952Z,2724.00
2018-05-17T05:20:31.962Z,2788.00
2018-05-17T05:21:31.972Z,3484.00
2018-05-17T05:22:31.982Z,3304.00
2018-05-17T05:23:31.988Z,3268.00
2018-05-17T05:24:32.000Z,3292.00
2018-05-17T05:25:32.011Z,3524.00
2018-05-17T05:26:32.018Z,3492.00
2018-05-17T05:27:32.035Z,3736.00
2018-05-17T05:28:32.039Z,3800.00
2018-05-17T05:29:32.051Z,3548.00
2018-05-17T05:30:32.054Z,3288.00
2018-05-17T05:31:32.169Z,3608.00
2018-05-17T05:32:32.077Z,3756.00
2018-05-17T05:33:32.088Z,4244.00
2018-05-17T05:34:32.098Z,4400.00
2018-05-17T05:35:32.106Z,4432.00
2018-05-17T05:36:32.116Z,4460.00
2018-05-17T05:37:32.180Z,4532.00
2018-05-17T05:38:32.140Z,4496.00
2018-05-17T05:39:32.157Z,4352.00
2018-05-17T05:40:32.172Z,4384.00
2018-05-17T05:41:32.163Z,4448.00
2018-05-17T05:42:32.171Z,4396.00
2018-05-17T05:43:32.184Z,4444.00
2018-05-17T05:44:32.193Z,4408.00
2018-05-17T05:45:32.203Z,4376.00
2018-05-17T05:46:32.922Z,4328.00
2018-05-17T05:47:32.225Z,4312.00
2018-05-17T05:48:32.233Z,4316.00
2018-05-17T05:49:32.335Z,4396.00
2018-05-17T05:50:32.251Z,4720.00
2018-05-17T05:51:32.263Z,4744.00
2018-05-17T05:52:32.273Z,5120.00
2018-05-17T05:53:32.282Z,5232.00
2018-05-17T05:54:32.292Z,5240.00
2018-05-17T05:55:32.304Z,5456.00
2018-05-17T05:56:32.316Z,5504.00
2018-05-17T05:57:32.323Z,5720.00
2018-05-17T05:58:32.329Z,5880.00
2018-05-17T05:59:32.338Z,5948.00
2018-05-17T06:00:32.351Z,6164.00
2018-05-17T06:01:32.360Z,6308.00
2018-05-17T06:02:32.370Z,6368.00
2018-05-17T06:03:32.384Z,6328.00
2018-05-17T06:04:32.391Z,5828.00
2018-05-17T06:05:32.403Z,5852.00
2018-05-17T06:06:32.411Z,5812.00
2018-05-17T06:07:32.420Z,5632.00
2018-05-17T06:08:32.433Z,5804.00
2018-05-17T06:09:32.464Z,5616.00
2018-05-17T06:10:32.461Z,6344.00
2018-05-17T06:11:32.474Z,6572.00
2018-05-17T06:12:32.470Z,6500.00
2018-05-17T06:13:32.482Z,6412.00
2018-05-17T06:14:32.488Z,6208.00
2018-05-17T06:15:32.498Z,6052.00
2018-05-17T06:16:32.511Z,6036.00
2018-05-17T06:17:32.524Z,5828.00
2018-05-17T06:18:32.533Z,5148.00
2018-05-17T06:19:32.539Z,4532.00
2018-05-17T06:20:32.552Z,4324.00
2018-05-17T06:21:32.560Z,3892.00
2018-05-17T06:22:32.578Z,3268.00
2018-05-17T06:23:32.583Z,3232.00
2018-05-17T06:24:32.592Z,3500.00
2018-05-17T06:25:32.605Z,3112.00
2018-05-17T06:26:32.611Z,3500.00
2018-05-17T06:27:32.623Z,3580.00
2018-05-17T06:28:32.632Z,3576.00
2018-05-17T06:29:32.650Z,3596.00
2018-05-17T06:30:32.651Z,4604.00
2018-05-17T06:31:32.663Z,4636.00
2018-05-17T06:32:32.673Z,4876.00
2018-05-17T06:33:32.682Z,4552.00
2018-05-17T06:34:32.692Z,4480.00
2018-05-17T06:35:32.731Z,5060.00
2018-05-17T06:36:32.715Z,5028.00
2018-05-17T06:37:32.761Z,5596.00
2018-05-17T06:38:32.749Z,6068.00
2018-05-17T06:39:32.755Z,6352.00
2018-05-17T06:40:32.755Z,6056.00
2018-05-17T06:41:32.762Z,6108.00
2018-05-17T06:42:32.775Z,5520.00
2018-05-17T06:43:32.782Z,5080.00
2018-05-17T06:44:32.797Z,4696.00
2018-05-17T06:45:32.807Z,4740.00
2018-05-17T06:46:32.821Z,4528.00
2018-05-17T06:47:32.826Z,4260.00
2018-05-17T06:48:32.834Z,3916.00
2018-05-17T06:49:32.847Z,3544.00
2018-05-17T06:50:32.856Z,3852.00
2018-05-17T06:51:32.864Z,4056.00
2018-05-17T06:52:32.886Z,4144.00
2018-05-17T06:53:32.890Z,4184.00
2018-05-17T06:54:32.897Z,4300.00
2018-05-17T06:55:32.906Z,4240.00
2018-05-17T06:56:32.917Z,4024.00
2018-05-17T06:57:32.925Z,4088.00
2018-05-17T06:58:32.937Z,3864.00
2018-05-17T06:59:32.947Z,4292.00
2018-05-17T07:00:32.976Z,4732.00
2018-05-17T07:01:33.033Z,4688.00
2018-05-17T07:02:32.975Z,4952.00
2018-05-17T07:03:32.995Z,4960.00
2018-05-17T07:04:32.996Z,4452.00
2018-05-17T07:05:33.011Z,4992.00
2018-05-17T07:06:33.016Z,4992.00
2018-05-17T07:07:33.039Z,4928.00
2018-05-17T07:08:33.047Z,6220.00
2018-05-17T07:09:33.053Z,7576.00
2018-05-17T07:10:33.106Z,7704.00
2018-05-17T07:11:33.068Z,7064.00
2018-05-17T07:12:33.089Z,5212.00
2018-05-17T07:13:33.092Z,4872.00
2018-05-17T07:14:33.100Z,5828.00
2018-05-17T07:15:33.109Z,5576.00
2018-05-17T07:16:33.118Z,5268.00
2018-05-17T07:17:33.131Z,5012.00
2018-05-17T07:18:33.465Z,4488.00
2018-05-17T07:19:33.150Z,4732.00
2018-05-17T07:20:33.162Z,4940.00
2018-05-17T07:21:33.173Z,4864.00
2018-05-17T07:22:33.183Z,5456.00
2018-05-17T07:23:33.188Z,4884.00
2018-05-17T07:24:33.200Z,4892.00
2018-05-17T07:25:33.213Z,5376.00
2018-05-17T07:26:33.218Z,5192.00
2018-05-17T07:27:33.237Z,5280.00
2018-05-17T07:28:33.247Z,5376.00
2018-05-17T07:29:33.268Z,5432.00
2018-05-17T07:30:33.262Z,5548.00
2018-05-17T07:31:33.273Z,5504.00
2018-05-17T07:32:33.286Z,5532.00
2018-05-17T07:33:33.296Z,4804.00
2018-05-17T07:34:33.308Z,5140.00
2018-05-17T07:35:33.317Z,5252.00
2018-05-17T07:36:33.326Z,4968.00
2018-05-17T07:37:33.338Z,4440.00
2018-05-17T07:38:33.349Z,4432.00
2018-05-17T07:39:33.364Z,4964.00
2018-05-17T07:40:33.370Z,5816.00
2018-05-17T07:41:33.380Z,6876.00
2018-05-17T07:42:33.389Z,7968.00
2018-05-17T07:43:33.401Z,9120.00
2018-05-17T07:44:33.426Z,10184.00
2018-05-17T07:45:33.421Z,10788.00
2018-05-17T07:46:33.438Z,10964.00
2018-05-17T07:47:33.446Z,10340.00
2018-05-17T07:48:33.453Z,9768.00
2018-05-17T07:49:33.464Z,9180.00
2018-05-17T07:50:33.471Z,8472.00
2018-05-17T07:51:33.503Z,8232.00
2018-05-17T07:52:33.510Z,7936.00
2018-05-17T07:53:33.515Z,7640.00
2018-05-17T07:54:33.517Z,7368.00
2018-05-17T07:55:33.559Z,6696.00
2018-05-17T07:56:33.558Z,6384.00
2018-05-17T07:57:33.549Z,6668.00
2018-05-17T07:58:33.561Z,7056.00
2018-05-17T07:59:33.588Z,7904.00
2018-05-17T08:00:33.597Z,8436.00
2018-05-17T08:01:33.593Z,9140.00
2018-05-17T08:02:33.612Z,9012.00
2018-05-17T08:03:33.612Z,8520.00
2018-05-17T08:04:33.629Z,8488.00
2018-05-17T08:05:33.642Z,7904.00
2018-05-17T08:06:33.651Z,7336.00
2018-05-17T08:07:33.659Z,6584.00
2018-05-17T08:08:33.674Z,6008.00
2018-05-17T08:09:33.697Z,5744.00
2018-05-17T08:10:33.689Z,6012.00
2018-05-17T08:11:33.701Z,6244.00
2018-05-17T08:12:33.714Z,6292.00
2018-05-17T08:13:33.724Z,7080.00
2018-05-17T08:14:33.860Z,7052.00
2018-05-17T08:15:33.739Z,6956.00
2018-05-17T08:16:33.754Z,7020.00
2018-05-17T08:17:33.760Z,6968.00
2018-05-17T08:18:33.799Z,6832.00
2018-05-17T08:19:33.783Z,6500.00
2018-05-17T08:20:33.811Z,6448.00
2018-05-17T08:21:33.803Z,6708.00
2018-05-17T08:22:33.834Z,6764.00
2018-05-17T08:23:33.822Z,6936.00
2018-05-17T08:24:33.835Z,7324.00
2018-05-17T08:25:33.848Z,8020.00
2018-05-17T08:26:33.863Z,8804.00
2018-05-17T08:27:33.867Z,9372.00
2018-05-17T08:28:33.880Z,9580.00
2018-05-17T08:29:33.888Z,9608.00
2018-05-17T08:30:33.901Z,9652.00
2018-05-17T08:31:33.912Z,9668.00
2018-05-17T08:32:33.927Z,9456.00
2018-05-17T08:33:33.939Z,9648.00
2018-05-17T08:34:33.945Z,9752.00
2018-05-17T08:35:33.953Z,9848.00
2018-05-17T08:36:33.983Z,10100.00
2018-05-17T08:37:34.059Z,10356.00
2018-05-17T08:38:33.990Z,10528.00
2018-05-17T08:39:33.997Z,10700.00
2018-05-17T08:40:34.018Z,10896.00
2018-05-17T08:41:34.027Z,11004.00
2018-05-17T08:42:34.923Z,11016.00
2018-05-17T08:43:34.043Z,11020.00
2018-05-17T08:44:34.053Z,11032.00
2018-05-17T08:45:34.150Z,10968.00
2018-05-17T08:46:34.077Z,11012.00
2018-05-17T08:47:34.084Z,11156.00
2018-05-17T08:48:34.095Z,11252.00
2018-05-17T08:49:34.104Z,11232.00
2018-05-17T08:50:34.115Z,11244.00
2018-05-17T08:51:34.139Z,11292.00
2018-05-17T08:52:34.136Z,11156.00
2018-05-17T08:53:34.150Z,11108.00
2018-05-17T08:54:34.166Z,11064.00
2018-05-17T08:55:34.169Z,11468.00
2018-05-17T08:56:34.185Z,11580.00
2018-05-17T08:57:34.195Z,11688.00
2018-05-17T08:58:34.208Z,11596.00
2018-05-17T08:59:34.217Z,11384.00
2018-05-17T09:00:34.230Z,11064.00
2018-05-17T09:01:34.243Z,10700.00
2018-05-17T09:02:34.246Z,10232.00
2018-05-17T09:03:34.259Z,9984.00
2018-05-17T09:04:34.271Z,9712.00
2018-05-17T09:05:34.283Z,9284.00
2018-05-17T09:06:34.294Z,8828.00
2018-05-17T09:07:34.940Z,8404.00
2018-05-17T09:08:34.316Z,8200.00
2018-05-17T09:09:34.328Z,8092.00
2018-05-17T09:10:34.339Z,8140.00
2018-05-17T09:11:34.346Z,8416.00
2018-05-17T09:12:34.359Z,8368.00
2018-05-17T09:13:34.472Z,8152.00
2018-05-17T09:14:34.382Z,7952.00
2018-05-17T09:15:34.394Z,7964.00
2018-05-17T09:16:34.404Z,8196.00
2018-05-17T09:17:34.422Z,7352.00
2018-05-17T09:18:34.427Z,6268.00
2018-05-17T09:19:34.436Z,5016.00
2018-05-17T09:20:34.491Z,4804.00
2018-05-17T09:21:34.458Z,4180.00
2018-05-17T09:22:34.487Z,4344.00
2018-05-17T09:23:34.483Z,4436.00
2018-05-17T09:24:34.501Z,4484.00
2018-05-17T09:25:34.508Z,4252.00
2018-05-17T09:26:34.515Z,4684.00
2018-05-17T09:27:34.524Z,4704.00
2018-05-17T09:28:34.538Z,5516.00
2018-05-17T09:29:34.545Z,6548.00
2018-05-17T09:30:34.556Z,7576.00
2018-05-17T09:31:34.569Z,8092.00
2018-05-17T09:32:34.583Z,8372.00
2018-05-17T09:33:34.608Z,8388.00
2018-05-17T09:34:34.599Z,7996.00
2018-05-17T09:35:34.619Z,7664.00
2018-05-17T09:36:34.624Z,7264.00
2018-05-17T09:37:34.630Z,6616.00
2018-05-17T09:38:34.647Z,6064.00
2018-05-17T09:39:34.648Z,5672.00
2018-05-17T09:40:34.663Z,5288.00
2018-05-17T09:41:34.694Z,5072.00
2018-05-17T09:42:34.716Z,5020.00
2018-05-17T09:43:34.696Z,4976.00
2018-05-17T09:44:34.717Z,4964.00
2018-05-17T09:45:34.716Z,5260.00
2018-05-17T09:46:34.761Z,5748.00
2018-05-17T09:47:34.756Z,6140.00
2018-05-17T09:48:34.749Z,6280.00
2018-05-17T09:49:34.766Z,6056.00
2018-05-17T09:50:34.779Z,5836.00
2018-05-17T09:51:34.809Z,6036.00
2018-05-17T09:52:34.792Z,6156.00
2018-05-17T09:53:34.810Z,6260.00
2018-05-17T09:54:34.818Z,6276.00
2018-05-17T09:55:34.824Z,6184.00
2018-05-17T09:56:34.839Z,6132.00
2018-05-17T09:57:34.846Z,5752.00
2018-05-17T09:58:34.871Z,5612.00
2018-05-17T09:59:34.874Z,5316.00
2018-05-17T10:00:34.883Z,5036.00
2018-05-17T10:01:34.889Z,4684.00
2018-05-17T10:02:34.904Z,4848.00
2018-05-17T10:03:34.910Z,4984.00
2018-05-17T10:04:34.924Z,5388.00
2018-05-17T10:05:34.932Z,5688.00
2018-05-17T10:06:34.941Z,5828.00
2018-05-17T10:07:34.955Z,6416.00
2018-05-17T10:08:34.989Z,6680.00
2018-05-17T10:09:34.973Z,7100.00
2018-05-17T10:10:34.981Z,7416.00
2018-05-17T10:11:34.995Z,7536.00
2018-05-17T10:12:35.003Z,7892.00
2018-05-17T10:13:35.024Z,8552.00
2018-05-17T10:14:35.034Z,9568.00
2018-05-17T10:15:35.104Z,10720.00
2018-05-17T10:16:35.046Z,12084.00
2018-05-17T10:17:35.065Z,12592.00
2018-05-17T10:18:35.069Z,13740.00
2018-05-17T10:19:35.080Z,14668.00
2018-05-17T10:20:35.096Z,13768.00
2018-05-17T10:21:35.104Z,12784.00
2018-05-17T10:22:35.111Z,13232.00
2018-05-17T10:23:35.924Z,14544.00
2018-05-17T10:24:35.135Z,18176.00
2018-05-17T10:25:35.153Z,21504.00
2018-05-17T10:26:35.165Z,21952.00
2018-05-17T10:27:35.165Z,21152.00
2018-05-17T10:28:35.179Z,21472.00
2018-05-17T10:29:35.257Z,20864.00
2018-05-17T10:30:35.200Z,21984.00
2018-05-17T10:31:35.212Z,22880.00
2018-05-17T10:32:35.228Z,22560.00
2018-05-17T10:33:35.234Z,22496.00
2018-05-17T10:34:35.252Z,21408.00
2018-05-17T10:35:35.264Z,20960.00
2018-05-17T10:36:35.286Z,20800.00
2018-05-17T10:37:35.287Z,22464.00
2018-05-17T10:38:35.295Z,23680.00
2018-05-17T10:39:35.306Z,25632.00
2018-05-17T10:40:35.322Z,26400.00
2018-05-17T10:41:35.349Z,25728.00
2018-05-17T10:42:35.340Z,25024.00
2018-05-17T10:43:35.353Z,26624.00
2018-05-17T10:44:35.384Z,27744.00
2018-05-17T10:45:35.394Z,24320.00
2018-05-17T10:46:35.926Z,20704.00
2018-05-17T10:47:35.402Z,21408.00
2018-05-17T10:48:35.427Z,17696.00
2018-05-17T10:49:35.434Z,13588.00
2018-05-17T10:50:35.452Z,13012.00
2018-05-17T10:51:35.462Z,11488.00
2018-05-17T10:52:35.470Z,10356.00
2018-05-17T10:53:35.491Z,9724.00
2018-05-17T10:54:35.588Z,10496.00
2018-05-17T10:55:35.512Z,10056.00
2018-05-17T10:56:35.524Z,9648.00
2018-05-17T10:57:35.533Z,9668.00
2018-05-17T10:58:35.543Z,11024.00
2018-05-17T10:59:35.554Z,11448.00
2018-05-17T11:00:35.596Z,10336.00
2018-05-17T11:01:35.581Z,9828.00
2018-05-17T11:02:35.648Z,9600.00
2018-05-17T11:03:35.608Z,10156.00
2018-05-17T11:04:35.618Z,9260.00
2018-05-17T11:05:35.629Z,8380.00
2018-05-17T11:06:35.644Z,8388.00
2018-05-17T11:07:35.654Z,9144.00
2018-05-17T11:08:35.674Z,8624.00
2018-05-17T11:09:35.686Z,8272.00
2018-05-17T11:10:35.695Z,8380.00
2018-05-17T11:11:35.854Z,8500.00
2018-05-17T11:12:35.715Z,8504.00
2018-05-17T11:13:35.725Z,8560.00
2018-05-17T11:14:35.741Z,8616.00
2018-05-17T11:15:35.748Z,8688.00
2018-05-17T11:16:35.766Z,8476.00
2018-05-17T11:17:35.783Z,7892.00
2018-05-17T11:18:35.794Z,7040.00
2018-05-17T11:19:35.877Z,6280.00
2018-05-17T11:20:35.812Z,5800.00
2018-05-17T11:21:35.827Z,5680.00
2018-05-17T11:22:35.840Z,5696.00
2018-05-17T11:23:35.855Z,5376.00
2018-05-17T11:24:35.857Z,4344.00
2018-05-17T11:25:35.869Z,3828.00
2018-05-17T11:26:35.879Z,3460.00
2018-05-17T11:27:35.902Z,3424.00
2018-05-17T11:28:35.906Z,3652.00
2018-05-17T11:29:35.928Z,4080.00
2018-05-17T11:30:35.927Z,4760.00
2018-05-17T11:31:35.938Z,5688.00
2018-05-17T11:32:35.955Z,6780.00
2018-05-17T11:33:35.978Z,8168.00
2018-05-17T11:34:35.989Z,9036.00
2018-05-17T11:35:35.985Z,9984.00
2018-05-17T11:36:35.995Z,10968.00
2018-05-17T11:37:36.014Z,11536.00
2018-05-17T11:38:36.073Z,11492.00
2018-05-17T11:39:36.049Z,11140.00
2018-05-17T11:40:36.040Z,10600.00
2018-05-17T11:41:36.051Z,9768.00
2018-05-17T11:42:36.083Z,9220.00
2018-05-17T11:43:36.088Z,9480.00
2018-05-17T11:44:36.946Z,9612.00
2018-05-17T11:45:36.100Z,9916.00
2018-05-17T11:46:36.118Z,10496.00
2018-05-17T11:47:36.127Z,10504.00
2018-05-17T11:48:36.133Z,9396.00
2018-05-17T11:49:36.157Z,8348.00
2018-05-17T11:50:36.161Z,8152.00
2018-05-17T11:51:36.168Z,9216.00
2018-05-17T11:52:36.185Z,9620.00
2018-05-17T11:53:36.196Z,11612.00
2018-05-17T11:54:36.202Z,10824.00
2018-05-17T11:55:36.219Z,10984.00
2018-05-17T11:56:36.255Z,10076.00
2018-05-17T11:57:36.238Z,9164.00
2018-05-17T11:58:36.256Z,8180.00
2018-05-17T11:59:36.264Z,7316.00
2018-05-17T12:00:36.284Z,6712.00
2018-05-17T12:01:36.295Z,6540.00
2018-05-17T12:02:36.329Z,6832.00
2018-05-17T12:03:36.315Z,7068.00
2018-05-17T12:04:36.321Z,6960.00
2018-05-17T12:05:36.336Z,6732.00
2018-05-17T12:06:36.343Z,6600.00
2018-05-17T12:07:36.391Z,6588.00
2018-05-17T12:08:36.378Z,6420.00
2018-05-17T12:09:36.379Z,6204.00
2018-05-17T12:10:36.390Z,5984.00
2018-05-17T12:11:36.414Z,5900.00
2018-05-17T12:12:36.416Z,6132.00
2018-05-17T12:13:36.426Z,6896.00
2018-05-17T12:14:36.446Z,7944.00
2018-05-17T12:15:36.451Z,8696.00
2018-05-17T12:16:36.460Z,8628.00
2018-05-17T12:17:36.475Z,8516.00
2018-05-17T12:18:36.491Z,8540.00
2018-05-17T12:19:36.501Z,8460.00
2018-05-17T12:20:36.507Z,8852.00
2018-05-17T12:21:36.523Z,9256.00
2018-05-17T12:22:36.529Z,8844.00
2018-05-17T12:23:36.541Z,7608.00
2018-05-17T12:24:36.558Z,6660.00
2018-05-17T12:25:36.575Z,6160.00
2018-05-17T12:26:36.587Z,5996.00